Time;durP1;ratioP1;P1;durP2;ratioP2;P2;SDS_P1;SDS_P2;PMS_P1;PMS_P2;Temp;Humidity;BMP_temperature;BMP_pressure;BME280_temperature;BME280_humidity;BME280_pressure;Samples;Min_cycle;Max_cycle;Signal;HPM_P1;HPM_P2
2021/08/22 00:00:42;;;;;;;7.60;6.75;;;25.00;75.60;;;;;;5025881;28;20482;-60
2021/08/22 00:03:08;;;;;;;8.43;6.68;;;24.90;75.60;;;;;;5047183;28;20116;-60
2021/08/22 00:05:33;;;;;;;7.50;6.32;;;24.90;75.80;;;;;;5045555;28;20488;-60
2021/08/22 00:07:59;;;;;;;7.88;5.75;;;24.90;75.90;;;;;;5027725;28;20043;-60
2021/08/22 00:10:25;;;;;;;8.50;5.75;;;24.80;76.10;;;;;;5066005;28;20058;-60
2021/08/22 00:12:50;;;;;;;11.60;6.13;;;24.80;76.30;;;;;;5047455;28;20040;-59
2021/08/22 00:15:16;;;;;;;12.93;6.80;;;24.80;76.50;;;;;;5044374;28;20078;-59
2021/08/22 00:17:41;;;;;;;18.25;5.95;;;24.70;77.30;;;;;;5064576;28;20071;-59
2021/08/22 00:20:07;;;;;;;20.20;5.65;;;24.80;77.50;;;;;;5045595;28;20032;-59
2021/08/22 00:22:33;;;;;;;16.05;6.32;;;24.70;77.60;;;;;;5028383;28;21054;-59
2021/08/22 00:24:58;;;;;;;12.30;5.28;;;24.60;77.70;;;;;;5046107;28;21076;-59
2021/08/22 00:27:24;;;;;;;12.90;5.40;;;24.60;77.80;;;;;;5029107;28;20051;-59
2021/08/22 00:29:49;;;;;;;18.90;5.55;;;24.50;77.80;;;;;;5047675;28;20432;-59
2021/08/22 00:32:15;;;;;;;9.57;5.38;;;24.50;77.80;;;;;;5044998;28;20169;-60
2021/08/22 00:34:41;;;;;;;13.80;5.88;;;24.50;78.00;;;;;;5061295;28;20055;-59
2021/08/22 00:37:06;;;;;;;11.57;5.30;;;24.50;78.10;;;;;;5043223;28;20121;-59
2021/08/22 00:39:32;;;;;;;15.52;5.55;;;24.40;78.20;;;;;;5042022;28;20043;-59
2021/08/22 00:41:58;;;;;;;15.35;5.43;;;24.40;78.30;;;;;;5042771;28;20089;-59
2021/08/22 00:44:24;;;;;;;9.70;4.85;;;24.40;78.40;;;;;;5044535;28;20021;-59
2021/08/22 00:46:50;;;;;;;15.82;5.20;;;24.30;78.50;;;;;;5043864;28;20217;-59
2021/08/22 00:49:16;;;;;;;15.45;5.50;;;24.30;78.70;;;;;;5026747;28;20048;-59
2021/08/22 00:51:42;;;;;;;8.90;4.85;;;24.30;78.90;;;;;;5061446;28;20112;-60
2021/08/22 00:54:07;;;;;;;12.13;4.85;;;24.30;79.10;;;;;;5026373;28;20039;-59
2021/08/22 00:56:33;;;;;;;12.00;4.97;;;24.20;79.10;;;;;;5062518;28;20120;-59
2021/08/22 00:59:12;;;;;;;8.82;5.28;;;24.20;79.20;;;;;;5016353;28;20687;-59
2021/08/22 01:01:38;;;;;;;6.38;4.80;;;24.20;79.30;;;;;;5024976;28;20052;-59
2021/08/22 01:04:20;;;;;;;9.13;4.88;;;24.20;79.50;;;;;;5031508;28;20560;-59
2021/08/22 01:06:56;;;;;;;12.07;4.68;;;24.10;79.50;;;;;;5034249;28;20098;-59
2021/08/22 01:09:25;;;;;;;8.18;5.53;;;24.10;79.90;;;;;;5041972;28;20021;-59
2021/08/22 01:11:52;;;;;;;7.05;4.38;;;24.10;80.20;;;;;;5027206;28;20473;-59
2021/08/22 01:14:22;;;;;;;11.57;4.82;;;24.10;80.30;;;;;;5035339;28;20108;-59
2021/08/22 01:16:50;;;;;;;12.98;4.97;;;24.10;80.50;;;;;;5019815;28;20060;-59
2021/08/22 01:19:29;;;;;;;10.77;4.47;;;24.00;81.00;;;;;;5015105;28;20059;-60
2021/08/22 01:21:54;;;;;;;7.50;4.32;;;24.00;80.90;;;;;;5029500;28;20034;-59
2021/08/22 01:24:20;;;;;;;5.32;4.18;;;24.00;80.80;;;;;;5046606;28;20036;-59
2021/08/22 01:26:46;;;;;;;10.27;4.60;;;24.00;81.10;;;;;;5036110;28;20099;-60
2021/08/22 01:29:11;;;;;;;6.90;4.10;;;23.90;81.00;;;;;;5041998;28;20532;-60
2021/08/22 01:31:41;;;;;;;7.10;3.92;;;23.90;81.10;;;;;;5024652;28;20123;-59
2021/08/22 01:34:06;;;;;;;10.18;4.50;;;23.90;81.60;;;;;;5013915;28;20028;-59
2021/08/22 01:36:32;;;;;;;6.90;4.18;;;23.90;81.80;;;;;;5043053;28;20039;-59
2021/08/22 01:38:57;;;;;;;4.82;3.83;;;23.90;81.60;;;;;;5019494;28;20033;-59
2021/08/22 01:41:23;;;;;;;8.82;4.00;;;23.90;81.70;;;;;;5023083;28;20064;-59
2021/08/22 01:43:49;;;;;;;5.18;4.00;;;23.80;81.50;;;;;;5039767;28;20447;-59
2021/08/22 01:46:14;;;;;;;4.95;3.95;;;23.80;81.60;;;;;;5040520;28;20037;-59
2021/08/22 01:48:40;;;;;;;5.15;4.00;;;23.80;81.50;;;;;;5031075;28;20041;-60
2021/08/22 01:51:05;;;;;;;7.57;4.13;;;23.70;81.60;;;;;;5027422;28;20029;-59
2021/08/22 01:53:31;;;;;;;4.72;3.85;;;23.70;81.80;;;;;;5027775;28;20098;-59
2021/08/22 01:55:56;;;;;;;4.25;3.72;;;23.70;82.10;;;;;;5029219;28;20036;-59
2021/08/22 01:58:24;;;;;;;5.43;3.67;;;23.70;82.10;;;;;;5059453;28;20032;-59
2021/08/22 02:00:49;;;;;;;8.93;4.20;;;23.70;82.10;;;;;;5042209;28;20041;-59
2021/08/22 02:03:16;;;;;;;4.88;3.58;;;23.60;82.10;;;;;;5027071;28;20021;-60
2021/08/22 02:05:41;;;;;;;4.78;3.45;;;23.60;82.20;;;;;;5048792;28;20482;-59
2021/08/22 02:08:10;;;;;;;4.75;3.03;;;23.60;82.30;;;;;;5061279;28;20040;-59
2021/08/22 02:10:36;;;;;;;7.50;3.35;;;23.50;82.40;;;;;;5025077;28;20151;-59
2021/08/22 02:13:02;;;;;;;4.80;3.45;;;23.60;82.60;;;;;;5027426;28;20132;-59
2021/08/22 02:15:29;;;;;;;4.00;3.47;;;23.50;82.60;;;;;;5034486;28;20428;-60
2021/08/22 02:18:03;;;;;;;7.53;3.67;;;23.50;82.60;;;;;;5020580;28;20036;-59
2021/08/22 02:20:29;;;;;;;4.07;3.13;;;23.50;82.70;;;;;;5017835;28;20058;-59
2021/08/22 02:22:54;;;;;;;5.40;3.50;;;23.40;82.70;;;;;;5026242;28;20909;-59
2021/08/22 02:25:20;;;;;;;5.00;3.15;;;23.40;82.70;;;;;;5028769;28;20036;-59
2021/08/22 02:27:46;;;;;;;6.28;3.47;;;23.40;82.70;;;;;;5058198;28;20540;-59
2021/08/22 02:30:11;;;;;;;4.53;3.65;;;23.40;82.80;;;;;;5052576;28;20086;-59
2021/08/22 02:32:37;;;;;;;6.38;3.53;;;23.30;82.70;;;;;;5010238;28;20028;-60
2021/08/22 02:35:03;;;;;;;4.10;3.63;;;23.30;82.90;;;;;;5010843;28;20119;-59
2021/08/22 02:37:28;;;;;;;5.45;3.40;;;23.30;82.90;;;;;;5060679;28;20059;-60
2021/08/22 02:39:55;;;;;;;3.85;3.15;;;23.30;83.70;;;;;;5014581;28;20488;-59
2021/08/22 02:42:20;;;;;;;4.75;3.22;;;23.30;83.10;;;;;;5039573;28;20403;-59
2021/08/22 02:44:46;;;;;;;3.42;3.05;;;23.20;83.10;;;;;;5067044;28;20107;-59
2021/08/22 02:47:14;;;;;;;3.97;3.17;;;23.20;83.20;;;;;;5031934;28;20036;-59
2021/08/22 02:49:39;;;;;;;4.72;3.55;;;23.20;83.20;;;;;;5055120;28;20059;-59
2021/08/22 02:52:05;;;;;;;3.45;2.95;;;23.20;83.20;;;;;;5047276;28;20389;-60
2021/08/22 02:54:31;;;;;;;4.68;3.22;;;23.20;83.30;;;;;;5076377;28;20027;-59
2021/08/22 02:56:56;;;;;;;3.63;3.03;;;23.20;83.20;;;;;;5049176;28;20095;-59
2021/08/22 02:59:21;;;;;;;4.40;3.25;;;23.20;83.40;;;;;;5050408;28;20039;-60
2021/08/22 03:01:47;;;;;;;5.38;3.58;;;23.10;83.50;;;;;;5045221;28;20039;-59
2021/08/22 03:04:12;;;;;;;5.85;3.70;;;23.20;83.70;;;;;;5048283;28;20673;-59
2021/08/22 03:06:38;;;;;;;3.75;3.33;;;23.20;83.80;;;;;;5046333;28;20044;-59
2021/08/22 03:09:04;;;;;;;6.78;3.42;;;23.10;83.80;;;;;;5032196;28;20433;-59
2021/08/22 03:11:30;;;;;;;3.25;2.95;;;23.10;84.00;;;;;;5034051;28;20025;-59
2021/08/22 03:13:56;;;;;;;5.47;3.33;;;23.00;84.10;;;;;;5030890;28;20051;-59
2021/08/22 03:16:21;;;;;;;4.38;3.45;;;23.00;84.30;;;;;;5045836;28;20360;-59
2021/08/22 03:18:47;;;;;;;4.20;3.40;;;23.00;84.30;;;;;;5041815;28;20028;-59
2021/08/22 03:21:13;;;;;;;3.60;3.13;;;23.00;84.30;;;;;;5034422;28;20037;-59
2021/08/22 03:23:38;;;;;;;4.38;3.25;;;22.90;84.30;;;;;;5049568;28;20072;-60
2021/08/22 03:26:05;;;;;;;5.45;3.40;;;22.90;84.50;;;;;;5054528;28;20045;-60
2021/08/22 03:28:30;;;;;;;4.47;3.63;;;22.90;84.70;;;;;;5071788;28;20031;-59
2021/08/22 03:30:56;;;;;;;4.38;3.35;;;22.90;84.70;;;;;;5035201;28;20025;-59
2021/08/22 03:33:21;;;;;;;4.82;3.17;;;22.90;84.80;;;;;;5035991;28;20467;-59
2021/08/22 03:35:50;;;;;;;4.90;3.53;;;22.90;84.80;;;;;;5048908;28;20123;-60
2021/08/22 03:38:16;;;;;;;7.85;3.55;;;22.80;84.80;;;;;;5047053;28;20045;-59
2021/08/22 03:40:41;;;;;;;5.22;3.58;;;22.90;84.90;;;;;;5046201;28;20051;-59
2021/08/22 03:43:07;;;;;;;4.95;3.40;;;22.80;85.20;;;;;;5045492;28;20427;-59
2021/08/22 03:45:32;;;;;;;5.70;3.28;;;22.80;85.10;;;;;;5029436;28;20040;-59
2021/08/22 03:47:58;;;;;;;5.65;3.10;;;22.80;85.30;;;;;;5067011;28;20459;-59
2021/08/22 03:50:23;;;;;;;6.07;3.50;;;22.80;85.30;;;;;;5032044;28;20480;-59
2021/08/22 03:52:51;;;;;;;5.80;3.17;;;22.80;85.30;;;;;;5047206;28;20036;-59
2021/08/22 03:55:17;;;;;;;5.78;3.58;;;22.80;85.70;;;;;;5069052;28;20032;-59
2021/08/22 03:57:43;;;;;;;4.05;3.40;;;22.80;85.70;;;;;;5047238;28;20424;-59
2021/08/22 04:00:09;;;;;;;4.40;3.45;;;22.80;85.90;;;;;;5035425;28;20162;-59
2021/08/22 04:02:34;;;;;;;4.22;3.13;;;22.70;86.00;;;;;;5064105;28;20082;-59
2021/08/22 04:05:01;;;;;;;6.13;3.83;;;22.70;86.00;;;;;;5044914;28;20025;-60
2021/08/22 04:07:28;;;;;;;4.70;3.83;;;22.70;85.90;;;;;;5041585;28;20044;-58
2021/08/22 04:09:54;;;;;;;8.15;3.75;;;22.70;86.00;;;;;;5027100;28;21078;-59
2021/08/22 04:12:19;;;;;;;6.07;3.50;;;22.70;86.10;;;;;;5037856;28;20085;-59
2021/08/22 04:14:45;;;;;;;4.55;3.60;;;22.60;86.10;;;;;;5046120;28;20480;-59
2021/08/22 04:17:10;;;;;;;7.40;3.70;;;22.60;86.10;;;;;;5048321;28;20080;-59
2021/08/22 04:19:36;;;;;;;4.15;3.60;;;22.60;86.10;;;;;;5059359;28;20044;-59
2021/08/22 04:22:01;;;;;;;6.07;3.67;;;22.60;86.10;;;;;;5045996;28;20386;-59
2021/08/22 04:24:28;;;;;;;4.07;3.58;;;22.60;86.20;;;;;;5047447;28;20548;-59
2021/08/22 04:26:53;;;;;;;3.55;3.05;;;22.60;86.30;;;;;;5030015;28;20075;-60
2021/08/22 04:29:19;;;;;;;4.72;3.35;;;22.60;86.30;;;;;;5045719;28;20032;-60
2021/08/22 04:31:45;;;;;;;6.63;3.50;;;22.50;86.80;;;;;;5065798;28;20021;-59
2021/08/22 04:34:10;;;;;;;4.03;3.60;;;22.50;86.20;;;;;;5061028;28;20040;-59
2021/08/22 04:36:36;;;;;;;4.22;3.15;;;22.50;86.10;;;;;;5061838;28;20032;-59
2021/08/22 04:39:01;;;;;;;4.68;3.58;;;22.50;86.20;;;;;;5042700;28;20052;-59
2021/08/22 04:41:27;;;;;;;4.38;3.17;;;22.50;86.20;;;;;;5022209;28;20040;-59
2021/08/22 04:43:52;;;;;;;3.97;3.40;;;22.50;86.20;;;;;;5023490;28;20055;-59
2021/08/22 04:46:18;;;;;;;4.53;3.60;;;22.50;86.30;;;;;;5057752;28;20028;-59
2021/08/22 04:48:44;;;;;;;5.97;3.90;;;22.50;86.30;;;;;;5041514;28;20030;-59
2021/08/22 04:51:09;;;;;;;8.77;3.78;;;22.50;86.40;;;;;;5026336;28;20036;-59
2021/08/22 04:53:35;;;;;;;5.32;3.67;;;22.40;86.40;;;;;;5067498;28;20045;-60
2021/08/22 04:56:02;;;;;;;5.47;3.70;;;22.40;86.50;;;;;;5048256;28;20040;-59
2021/08/22 04:58:27;;;;;;;6.75;3.88;;;22.40;86.50;;;;;;5049473;28;20088;-60
2021/08/22 05:00:53;;;;;;;9.00;4.05;;;22.40;86.60;;;;;;5025509;28;20127;-59
2021/08/22 05:03:18;;;;;;;8.32;3.67;;;22.40;86.80;;;;;;5030301;28;20045;-59
2021/08/22 05:05:44;;;;;;;8.73;3.97;;;22.40;87.00;;;;;;5030595;28;20029;-59
2021/08/22 05:08:09;;;;;;;11.30;3.60;;;22.40;87.10;;;;;;5044137;28;20113;-59
2021/08/22 05:10:35;;;;;;;13.02;3.92;;;22.40;87.20;;;;;;5043176;28;20098;-59
2021/08/22 05:13:01;;;;;;;4.70;3.80;;;22.40;87.00;;;;;;5041704;28;20147;-59
2021/08/22 05:15:26;;;;;;;16.52;3.90;;;22.40;87.00;;;;;;5029343;28;20027;-58
2021/08/22 05:17:52;;;;;;;9.27;3.90;;;22.30;86.90;;;;;;5059632;28;20104;-59
2021/08/22 05:20:19;;;;;;;8.50;3.50;;;22.40;87.00;;;;;;5063035;28;20037;-59
2021/08/22 05:22:45;;;;;;;7.07;3.78;;;22.30;87.00;;;;;;5045859;28;20032;-58
2021/08/22 05:25:10;;;;;;;8.10;4.15;;;22.30;87.10;;;;;;5045457;28;20021;-59
2021/08/22 05:27:36;;;;;;;7.07;3.83;;;22.30;87.20;;;;;;5042456;28;20048;-59
2021/08/22 05:30:02;;;;;;;7.18;4.38;;;22.30;87.40;;;;;;5040515;28;20348;-60
2021/08/22 05:32:27;;;;;;;7.07;3.60;;;22.30;87.30;;;;;;5035481;28;20471;-59
2021/08/22 05:34:53;;;;;;;5.63;3.33;;;22.30;88.00;;;;;;5064693;28;20094;-59
2021/08/22 05:37:18;;;;;;;6.60;4.22;;;22.30;87.30;;;;;;5028763;28;20048;-59
2021/08/22 05:39:44;;;;;;;6.93;3.80;;;22.30;87.90;;;;;;5058094;28;20036;-59
2021/08/22 05:42:09;;;;;;;5.90;4.28;;;22.30;87.30;;;;;;5061552;28;20593;-59
2021/08/22 05:44:35;;;;;;;6.72;4.13;;;22.40;87.30;;;;;;5043023;28;20506;-60
2021/08/22 05:47:00;;;;;;;6.93;4.05;;;22.30;87.30;;;;;;5063066;28;20029;-58
2021/08/22 05:49:26;;;;;;;6.32;3.83;;;22.40;87.30;;;;;;5025646;28;20043;-59
2021/08/22 05:51:51;;;;;;;7.47;3.90;;;22.40;87.40;;;;;;5058531;28;20052;-59
2021/08/22 05:54:17;;;;;;;6.18;3.80;;;22.40;87.50;;;;;;5059157;28;20116;-60
2021/08/22 05:56:43;;;;;;;6.18;4.00;;;22.40;87.50;;;;;;5029808;28;20028;-59
2021/08/22 05:59:08;;;;;;;9.48;4.47;;;22.30;87.60;;;;;;5067787;28;20048;-59
2021/08/22 06:01:35;;;;;;;4.97;3.63;;;22.40;87.80;;;;;;5043665;28;20024;-59
2021/08/22 06:04:00;;;;;;;7.40;4.38;;;22.30;87.80;;;;;;5068959;28;20020;-60
2021/08/22 06:06:26;;;;;;;7.70;3.80;;;22.40;87.90;;;;;;5057079;28;20037;-59
2021/08/22 06:08:51;;;;;;;9.57;4.40;;;22.40;88.00;;;;;;5027593;28;20021;-60
2021/08/22 06:11:17;;;;;;;8.35;4.25;;;22.30;88.00;;;;;;5041329;28;20499;-59
2021/08/22 06:13:42;;;;;;;6.53;4.20;;;22.30;88.10;;;;;;5029948;28;20048;-59
2021/08/22 06:16:08;;;;;;;5.68;4.82;;;22.30;88.30;;;;;;5059447;28;20119;-59
2021/08/22 06:18:33;;;;;;;8.68;4.38;;;22.40;89.40;;;;;;5035875;28;20143;-59
2021/08/22 06:20:59;;;;;;;7.53;4.70;;;22.40;89.30;;;;;;5043192;28;20111;-59
2021/08/22 06:23:24;;;;;;;6.93;4.22;;;22.40;89.60;;;;;;5042391;28;20898;-60
2021/08/22 06:25:50;;;;;;;7.60;4.60;;;22.40;89.00;;;;;;5040203;28;20075;-59
2021/08/22 06:28:16;;;;;;;11.45;4.75;;;22.40;88.80;;;;;;5067075;28;20043;-59
2021/08/22 06:30:42;;;;;;;7.65;5.05;;;22.40;88.80;;;;;;5038243;28;20032;-59
2021/08/22 06:33:08;;;;;;;6.85;4.70;;;22.40;88.70;;;;;;5044245;28;20170;-59
2021/08/22 06:35:34;;;;;;;6.15;4.35;;;22.40;88.60;;;;;;5062924;28;20111;-59
2021/08/22 06:37:59;;;;;;;5.93;4.95;;;22.40;88.70;;;;;;5063049;28;20543;-59
2021/08/22 06:40:25;;;;;;;7.00;4.75;;;22.40;88.50;;;;;;5024090;28;20031;-59
2021/08/22 06:42:50;;;;;;;17.88;5.28;;;22.40;88.30;;;;;;5008601;28;20043;-60
2021/08/22 06:45:16;;;;;;;7.85;4.63;;;22.40;88.10;;;;;;5053237;28;20048;-59
2021/08/22 06:47:41;;;;;;;6.85;4.30;;;22.40;88.00;;;;;;5024382;28;20337;-59
2021/08/22 06:50:07;;;;;;;6.28;4.25;;;22.40;88.00;;;;;;5043917;28;20032;-59
2021/08/22 06:52:33;;;;;;;8.55;4.10;;;22.40;88.00;;;;;;5058631;28;20041;-59
2021/08/22 06:54:59;;;;;;;6.50;4.68;;;22.50;87.80;;;;;;5046695;28;20399;-60
2021/08/22 06:57:24;;;;;;;7.05;4.25;;;22.50;87.90;;;;;;5026400;28;20105;-60
2021/08/22 06:59:50;;;;;;;9.02;4.72;;;22.50;87.80;;;;;;5027070;28;20403;-59
2021/08/22 07:02:16;;;;;;;5.40;4.57;;;22.50;87.70;;;;;;5062704;28;20102;-60
2021/08/22 07:04:42;;;;;;;7.20;4.60;;;22.50;87.70;;;;;;5052966;28;20021;-60
2021/08/22 07:07:07;;;;;;;7.07;4.25;;;22.50;87.60;;;;;;5013293;28;20399;-59
2021/08/22 07:09:33;;;;;;;9.82;5.03;;;22.50;87.60;;;;;;5028156;28;20023;-59
2021/08/22 07:11:59;;;;;;;9.57;4.75;;;22.50;87.50;;;;;;5011666;28;21221;-59
2021/08/22 07:14:24;;;;;;;7.88;4.82;;;22.50;87.70;;;;;;5020070;28;20348;-60
2021/08/22 07:16:50;;;;;;;6.05;4.70;;;22.50;87.60;;;;;;5042961;28;20056;-59
2021/08/22 07:19:15;;;;;;;6.97;3.95;;;22.50;87.50;;;;;;5041882;28;20419;-59
2021/08/22 07:21:41;;;;;;;16.45;4.88;;;22.50;87.50;;;;;;5060745;28;20044;-59
2021/08/22 07:24:06;;;;;;;12.80;4.35;;;22.50;87.50;;;;;;5026608;28;20037;-59
2021/08/22 07:26:32;;;;;;;6.53;4.80;;;22.50;87.40;;;;;;5006298;28;20103;-60
2021/08/22 07:28:57;;;;;;;11.55;4.65;;;22.60;88.00;;;;;;5062474;28;20111;-59
2021/08/22 07:31:23;;;;;;;11.48;5.20;;;22.60;87.80;;;;;;5028555;28;20418;-59
2021/08/22 07:33:48;;;;;;;12.40;4.70;;;22.60;87.90;;;;;;5066337;28;20107;-59
2021/08/22 07:36:14;;;;;;;11.38;4.80;;;22.60;88.10;;;;;;5047454;28;20035;-59
2021/08/22 07:38:39;;;;;;;8.93;4.50;;;22.60;88.30;;;;;;5043289;28;20036;-59
2021/08/22 07:41:05;;;;;;;12.10;5.45;;;22.60;88.10;;;;;;5067881;28;20484;-60
2021/08/22 07:43:32;;;;;;;14.23;5.35;;;22.60;88.00;;;;;;5028165;28;20522;-60
2021/08/22 07:45:57;;;;;;;10.32;5.25;;;22.60;87.80;;;;;;5030022;28;20044;-59
2021/08/22 07:48:23;;;;;;;10.50;5.07;;;22.60;87.60;;;;;;5066883;28;20028;-59
2021/08/22 07:50:48;;;;;;;14.18;5.78;;;22.60;87.60;;;;;;5052565;28;20063;-60
2021/08/22 07:53:16;;;;;;;12.93;5.35;;;22.70;87.40;;;;;;5029981;28;20025;-60
2021/08/22 07:55:42;;;;;;;36.83;6.22;;;22.70;87.30;;;;;;5063032;28;20033;-59
2021/08/22 07:58:07;;;;;;;12.35;5.25;;;22.70;87.20;;;;;;5029013;28;20094;-60
2021/08/22 08:00:33;;;;;;;18.05;5.13;;;22.70;87.10;;;;;;5024466;28;20085;-60
2021/08/22 08:02:58;;;;;;;26.05;5.85;;;22.70;87.10;;;;;;5039356;28;20071;-60
2021/08/22 08:05:24;;;;;;;12.95;4.90;;;22.80;87.70;;;;;;5010757;28;20211;-60
2021/08/22 08:07:49;;;;;;;14.10;5.28;;;22.70;88.10;;;;;;5024155;28;20109;-59
2021/08/22 08:10:17;;;;;;;18.23;6.60;;;22.70;88.00;;;;;;5035729;28;20156;-60
2021/08/22 08:12:43;;;;;;;17.08;5.45;;;22.80;88.10;;;;;;5053154;28;20754;-59
2021/08/22 08:15:09;;;;;;;21.77;5.78;;;22.80;88.10;;;;;;5033931;28;20116;-60
2021/08/22 08:17:34;;;;;;;27.15;6.53;;;22.70;88.20;;;;;;5062135;28;20056;-60
2021/08/22 08:20:00;;;;;;;22.83;5.75;;;22.70;88.20;;;;;;5053034;28;20036;-60
2021/08/22 08:22:25;;;;;;;35.03;7.15;;;22.70;87.90;;;;;;5044620;28;20642;-60
2021/08/22 08:24:51;;;;;;;36.50;6.18;;;22.70;87.90;;;;;;5057217;28;20039;-59
2021/08/22 08:27:16;;;;;;;33.05;6.38;;;22.70;87.90;;;;;;5025736;28;20028;-59
2021/08/22 08:29:42;;;;;;;51.85;6.97;;;22.80;88.00;;;;;;5040610;28;20045;-60
2021/08/22 08:32:07;;;;;;;47.45;7.68;;;22.80;87.70;;;;;;5026830;28;20562;-60
2021/08/22 08:34:33;;;;;;;48.13;7.85;;;22.80;87.60;;;;;;5023772;28;20020;-60
2021/08/22 08:36:58;;;;;;;50.35;7.25;;;22.80;88.20;;;;;;5059568;28;20503;-59
2021/08/22 08:39:24;;;;;;;59.47;8.70;;;22.80;87.90;;;;;;5025666;28;20025;-60
2021/08/22 08:41:49;;;;;;;71.68;9.30;;;22.90;88.30;;;;;;5025737;28;20044;-59
2021/08/22 08:44:15;;;;;;;58.38;8.73;;;22.90;88.40;;;;;;5036026;28;20033;-60
2021/08/22 08:46:59;;;;;;;98.57;11.57;;;22.80;88.20;;;;;;5042550;28;20082;-59
2021/08/22 08:49:26;;;;;;;79.25;11.73;;;22.90;88.30;;;;;;5068176;28;20036;-59
2021/08/22 08:51:55;;;;;;;132.95;13.85;;;22.90;88.50;;;;;;5044734;28;20009;-59
2021/08/22 08:54:36;;;;;;;248.30;21.80;;;22.90;88.60;;;;;;5058595;28;20162;-60
2021/08/22 08:57:03;;;;;;;111.40;12.25;;;22.90;88.30;;;;;;5033966;28;20182;-59
2021/08/22 08:59:28;;;;;;;111.50;14.05;;;23.00;88.40;;;;;;5040746;28;20024;-60
2021/08/22 09:01:56;;;;;;;247.48;23.90;;;23.00;88.60;;;;;;5055429;28;20041;-59
2021/08/22 09:04:27;;;;;;;97.38;13.55;;;23.00;88.80;;;;;;5041971;28;20053;-60
2021/08/22 09:06:58;;;;;;;211.10;20.60;;;23.00;88.90;;;;;;5050464;28;20508;-60
2021/08/22 09:09:43;;;;;;;321.23;33.80;;;23.00;89.10;;;;;;5053075;28;20033;-60
2021/08/22 09:12:23;;;;;;;139.80;15.88;;;23.00;89.00;;;;;;5052754;28;20036;-59
2021/08/22 09:15:33;;;;;;;106.88;16.15;;;23.10;88.70;;;;;;5034300;28;20033;-59
2021/08/22 09:18:36;;;;;;;83.05;10.80;;;23.10;88.50;;;;;;5035737;28;20057;-60
2021/08/22 09:21:39;;;;;;;105.45;12.05;;;23.10;88.40;;;;;;5056000;28;20033;-60
2021/08/22 09:24:30;;;;;;;103.47;11.82;;;23.20;88.50;;;;;;5057018;28;20226;-60
2021/08/22 09:27:29;;;;;;;104.82;12.70;;;23.20;88.00;;;;;;5056925;28;20028;-59
2021/08/22 09:30:20;;;;;;;150.77;17.35;;;23.20;88.20;;;;;;5059923;28;20068;-60
2021/08/22 09:33:23;;;;;;;151.10;14.75;;;23.30;88.30;;;;;;5059758;28;20091;-60
2021/08/22 09:36:28;;;;;;;122.22;14.20;;;23.30;88.10;;;;;;5058980;28;20060;-60
2021/08/22 09:39:21;;;;;;;123.22;13.73;;;23.30;87.80;;;;;;5040274;28;20462;-59
2021/08/22 09:42:24;;;;;;;137.52;14.43;;;23.40;88.10;;;;;;5045936;28;20134;-60
2021/08/22 09:45:23;;;;;;;135.48;14.65;;;23.40;88.10;;;;;;5062871;28;20442;-60
2021/08/22 09:48:25;;;;;;;95.13;11.75;;;23.40;88.10;;;;;;5064370;28;20035;-60
2021/08/22 09:51:28;;;;;;;86.10;10.38;;;23.50;87.80;;;;;;5040965;28;20025;-60
2021/08/22 09:54:28;;;;;;;78.57;10.82;;;23.50;87.80;;;;;;5060629;28;20029;-60
2021/08/22 09:57:31;;;;;;;107.35;12.38;;;23.60;88.10;;;;;;5054419;28;20048;-60
2021/08/22 10:00:12;;;;;;;102.20;12.07;;;23.60;88.20;;;;;;5037125;28;20039;-59
2021/08/22 10:02:56;;;;;;;106.30;12.15;;;23.70;88.10;;;;;;5049947;28;20060;-60
2021/08/22 10:05:31;;;;;;;149.23;15.98;;;23.70;87.50;;;;;;5063063;28;20602;-60
2021/08/22 10:07:59;;;;;;;150.88;15.77;;;23.80;87.30;;;;;;5057611;28;20071;-60
2021/08/22 10:10:58;;;;;;;145.40;15.27;;;23.80;87.10;;;;;;5060165;28;20119;-60
2021/08/22 10:13:24;;;;;;;161.23;17.73;;;23.90;87.20;;;;;;5009547;28;20147;-60
2021/08/22 10:15:51;;;;;;;150.60;14.93;;;23.90;86.90;;;;;;5042023;28;20052;-59
2021/08/22 10:18:26;;;;;;;147.85;16.95;;;24.00;86.80;;;;;;5024366;28;20044;-60
2021/08/22 10:21:02;;;;;;;169.93;16.70;;;24.00;86.40;;;;;;5022318;28;20171;-60
2021/08/22 10:23:43;;;;;;;118.78;13.25;;;24.00;86.10;;;;;;5036267;28;20036;-60
2021/08/22 10:26:09;;;;;;;102.13;12.60;;;24.00;86.00;;;;;;5037208;28;20047;-60
2021/08/22 10:28:55;;;;;;;125.03;14.35;;;24.10;85.70;;;;;;5024197;28;20525;-59
2021/08/22 10:31:49;;;;;;;108.90;11.82;;;24.10;85.60;;;;;;5059353;28;20027;-60
2021/08/22 10:34:17;;;;;;;120.57;13.60;;;24.10;85.50;;;;;;5040224;28;20342;-60
2021/08/22 10:36:43;;;;;;;131.23;14.88;;;24.10;85.50;;;;;;5052003;28;20043;-60
2021/08/22 10:39:27;;;;;;;125.72;15.25;;;24.20;85.80;;;;;;5005943;28;20596;-60
2021/08/22 10:41:53;;;;;;;121.30;13.57;;;24.30;85.60;;;;;;5029853;28;20082;-60
2021/08/22 10:44:36;;;;;;;123.88;15.70;;;24.40;86.10;;;;;;5038168;28;20036;-60
2021/08/22 10:47:03;;;;;;;121.50;15.32;;;24.40;85.70;;;;;;5040681;28;20162;-60
2021/08/22 10:49:51;;;;;;;128.07;13.85;;;24.50;86.00;;;;;;5025856;28;20032;-60
2021/08/22 10:52:21;;;;;;;113.85;12.93;;;24.50;85.70;;;;;;5038510;28;20029;-60
2021/08/22 10:55:05;;;;;;;114.40;13.82;;;24.60;85.30;;;;;;5018057;28;20052;-60
2021/08/22 10:57:49;;;;;;;119.55;15.38;;;24.60;85.20;;;;;;5034479;28;20102;-59
2021/08/22 11:00:22;;;;;;;130.18;15.43;;;24.60;85.00;;;;;;5035034;28;20048;-59
2021/08/22 11:03:01;;;;;;;154.73;19.02;;;24.70;85.00;;;;;;5058713;28;20388;-60
2021/08/22 11:05:28;;;;;;;176.13;16.88;;;24.80;84.90;;;;;;5055245;28;20420;-60
2021/08/22 11:07:55;;;;;;;132.80;14.77;;;24.80;84.80;;;;;;5009111;28;20044;-60
2021/08/22 11:10:27;;;;;;;106.53;14.43;;;24.80;84.30;;;;;;5018825;28;20609;-60
2021/08/22 11:12:53;;;;;;;153.90;15.63;;;24.80;84.40;;;;;;5044886;28;20887;-59
2021/08/22 11:15:26;;;;;;;118.10;15.18;;;24.80;84.70;;;;;;5041257;28;20020;-60
2021/08/22 11:17:56;;;;;;;119.50;13.90;;;24.80;84.20;;;;;;5043823;28;20091;-60
2021/08/22 11:20:26;;;;;;;90.85;11.70;;;24.80;84.00;;;;;;5032380;28;20487;-60
2021/08/22 11:23:05;;;;;;;126.65;15.45;;;24.80;83.90;;;;;;5042919;28;20424;-60
2021/08/22 11:25:30;;;;;;;90.85;12.35;;;24.80;84.00;;;;;;5038149;28;20020;-60
2021/08/22 11:28:07;;;;;;;84.60;11.95;;;24.80;83.60;;;;;;5038961;28;20035;-60
2021/08/22 11:30:32;;;;;;;112.43;13.38;;;24.80;83.20;;;;;;5037966;28;20033;-60
2021/08/22 11:32:58;;;;;;;104.38;12.00;;;24.80;83.00;;;;;;5039495;28;20555;-59
2021/08/22 11:35:24;;;;;;;116.45;13.43;;;24.80;83.00;;;;;;5026343;28;20071;-60
2021/08/22 11:37:50;;;;;;;79.97;10.90;;;24.90;83.10;;;;;;5024450;28;20441;-60
2021/08/22 11:40:17;;;;;;;84.47;11.52;;;24.90;82.70;;;;;;5023174;28;20102;-60
2021/08/22 11:42:46;;;;;;;110.78;13.80;;;24.90;82.50;;;;;;5023459;28;20044;-60
2021/08/22 11:45:14;;;;;;;106.78;12.38;;;24.90;82.40;;;;;;5039264;28;20043;-60
2021/08/22 11:47:39;;;;;;;65.55;10.25;;;24.90;82.10;;;;;;5040945;28;20041;-60
2021/08/22 11:50:10;;;;;;;130.00;14.23;;;25.00;82.00;;;;;;5029171;28;20019;-60
2021/08/22 11:52:36;;;;;;;84.53;11.50;;;25.00;82.10;;;;;;5030474;28;20044;-60
2021/08/22 11:55:05;;;;;;;78.38;10.93;;;25.00;81.60;;;;;;5011221;28;20025;-60
2021/08/22 11:57:31;;;;;;;95.55;12.02;;;25.10;81.20;;;;;;5037725;28;20025;-60
2021/08/22 12:00:10;;;;;;;75.20;10.07;;;25.10;81.00;;;;;;5056422;28;20139;-60
2021/08/22 12:02:36;;;;;;;61.35;8.85;;;25.20;80.70;;;;;;5041992;28;20028;-60
2021/08/22 12:05:21;;;;;;;104.65;12.40;;;25.20;80.50;;;;;;5010440;28;20560;-60
2021/08/22 12:07:48;;;;;;;153.18;17.58;;;25.20;80.50;;;;;;5041043;28;20021;-60
2021/08/22 12:10:22;;;;;;;130.00;14.07;;;25.20;80.70;;;;;;5022125;28;20094;-60
2021/08/22 12:12:47;;;;;;;118.35;13.45;;;25.20;80.50;;;;;;5024746;28;20033;-60
2021/08/22 12:15:13;;;;;;;95.22;11.85;;;25.30;80.40;;;;;;5038903;28;20043;-60
2021/08/22 12:17:38;;;;;;;97.70;12.90;;;25.30;80.20;;;;;;5040863;28;20154;-60
2021/08/22 12:20:23;;;;;;;105.47;12.25;;;25.40;80.40;;;;;;5023721;28;20033;-60
2021/08/22 12:23:02;;;;;;;69.80;10.27;;;25.30;80.30;;;;;;5024185;28;20036;-60
2021/08/22 12:25:28;;;;;;;98.10;12.55;;;25.30;80.20;;;;;;5038350;28;20032;-60
2021/08/22 12:27:53;;;;;;;69.15;9.60;;;25.40;80.60;;;;;;5020268;28;20036;-60
2021/08/22 12:30:19;;;;;;;88.28;12.75;;;25.40;80.10;;;;;;5021773;28;20064;-60
2021/08/22 12:32:45;;;;;;;105.30;12.95;;;25.40;80.20;;;;;;5006055;28;20024;-60
2021/08/22 12:35:10;;;;;;;69.30;11.45;;;25.30;80.30;;;;;;5020603;28;20083;-61
2021/08/22 12:37:36;;;;;;;81.13;12.55;;;25.30;80.30;;;;;;5024085;28;20029;-60
2021/08/22 12:40:06;;;;;;;95.70;12.40;;;25.30;80.30;;;;;;5058097;28;20055;-60
2021/08/22 12:42:32;;;;;;;89.75;11.95;;;25.30;80.40;;;;;;5008085;28;20119;-60
2021/08/22 12:44:57;;;;;;;73.72;12.32;;;25.30;80.30;;;;;;5027180;28;20123;-60